Time;durP1;ratioP1;P1;durP2;ratioP2;P2;SDS_P1;SDS_P2;PMS_P1;PMS_P2;Temp;Humidity;BMP_temperature;BMP_pressure;BME280_temperature;BME280_humidity;BME280_pressure;Samples;Min_cycle;Max_cycle;Signal;HPM_P1;HPM_P2
2021/05/06 00:11:37;;;;;;;4.13;2.10;;;6.50;99.90;;;;;;4960589;28;20047;-65
2021/05/06 00:33:02;;;;;;;4.82;2.40;;;6.40;99.90;;;;;;4960753;28;20560;-64
2021/05/06 00:35:32;;;;;;;4.05;3.05;;;6.40;99.90;;;;;;4960072;28;20042;-64
2021/05/06 00:40:36;;;;;;;7.18;2.92;;;6.30;99.90;;;;;;4962916;28;20047;-64
2021/05/06 00:43:26;;;;;;;7.07;3.33;;;6.30;99.90;;;;;;4961463;28;20062;-65
2021/05/06 01:10:44;;;;;;;4.82;2.55;;;6.20;99.90;;;;;;4957184;28;20117;-65
2021/05/06 01:13:15;;;;;;;5.68;3.08;;;6.20;99.90;;;;;;4960785;28;20046;-64
2021/05/06 01:15:42;;;;;;;3.53;3.22;;;6.20;99.90;;;;;;4975482;28;20074;-65
2021/05/06 01:18:09;;;;;;;4.90;3.08;;;6.20;99.90;;;;;;4947757;28;20472;-65
2021/05/06 01:20:42;;;;;;;9.40;2.78;;;6.20;99.90;;;;;;4940697;28;20055;-64
2021/05/06 01:23:09;;;;;;;4.55;3.95;;;6.20;99.90;;;;;;4961956;28;20051;-64
2021/05/06 01:25:36;;;;;;;6.00;3.20;;;6.20;99.90;;;;;;4940589;28;20477;-64
2021/05/06 01:28:08;;;;;;;3.90;3.20;;;6.10;99.90;;;;;;4961029;28;20109;-64
2021/05/06 01:33:14;;;;;;;3.42;2.40;;;6.00;99.90;;;;;;4962562;28;20053;-64
2021/05/06 01:35:50;;;;;;;7.85;3.55;;;6.10;99.90;;;;;;4942051;28;20039;-65
2021/05/06 02:00:10;;;;;;;4.20;3.47;;;6.10;99.90;;;;;;4960174;28;20047;-64
2021/05/06 02:02:41;;;;;;;5.97;3.33;;;6.10;99.90;;;;;;4961002;28;20042;-64
2021/05/06 02:05:09;;;;;;;5.40;3.60;;;6.10;99.90;;;;;;4943935;28;20047;-64
2021/05/06 02:07:39;;;;;;;4.13;3.15;;;6.10;99.90;;;;;;4957287;28;20054;-64
2021/05/06 02:10:10;;;;;;;3.33;2.90;;;6.10;99.90;;;;;;4942291;28;20814;-64
2021/05/06 02:12:38;;;;;;;7.45;4.72;;;6.10;99.90;;;;;;4976876;28;20065;-64
2021/05/06 02:15:10;;;;;;;6.70;2.95;;;6.10;99.90;;;;;;4962731;28;20141;-64
2021/05/06 02:17:38;;;;;;;9.32;4.80;;;6.10;99.90;;;;;;4974231;28;20136;-65
2021/05/06 02:20:06;;;;;;;4.07;3.30;;;6.10;99.90;;;;;;4961535;28;20042;-63
2021/05/06 02:22:34;;;;;;;4.18;3.70;;;6.10;99.90;;;;;;4975618;28;21489;-64
2021/05/06 02:25:00;;;;;;;4.15;3.70;;;6.10;99.90;;;;;;4967594;28;20436;-65
2021/05/06 02:27:27;;;;;;;4.90;3.40;;;6.10;99.90;;;;;;4957304;28;20170;-64
2021/05/06 02:29:53;;;;;;;7.57;5.47;;;6.10;99.90;;;;;;4964500;28;20133;-64
2021/05/06 02:32:20;;;;;;;7.07;3.53;;;6.10;99.90;;;;;;4960930;28;20049;-65
2021/05/06 02:34:46;;;;;;;6.43;4.22;;;6.10;99.90;;;;;;4964902;28;20544;-65
2021/05/06 02:37:13;;;;;;;8.20;3.63;;;6.10;99.90;;;;;;4963649;28;20497;-64
2021/05/06 02:39:41;;;;;;;8.43;3.58;;;6.10;99.90;;;;;;4962233;28;20089;-64
2021/05/06 02:42:07;;;;;;;4.13;3.55;;;6.10;99.90;;;;;;4966497;28;20746;-64
2021/05/06 02:44:35;;;;;;;5.32;2.85;;;6.10;99.90;;;;;;4963650;28;20051;-65
2021/05/06 02:47:03;;;;;;;4.07;2.90;;;6.10;99.90;;;;;;4965130;28;20051;-64
2021/05/06 02:49:30;;;;;;;6.18;3.00;;;6.10;99.90;;;;;;4960098;28;20047;-63
2021/05/06 02:52:05;;;;;;;6.85;3.10;;;6.10;99.90;;;;;;4961509;28;20101;-64
2021/05/06 02:54:58;;;;;;;2.95;2.65;;;6.10;99.90;;;;;;4964620;28;20464;-64
2021/05/06 03:05:09;;;;;;;4.70;3.05;;;6.10;99.90;;;;;;4964438;28;20042;-64
2021/05/06 03:07:38;;;;;;;4.38;2.80;;;6.10;99.90;;;;;;4962022;28;20046;-65
2021/05/06 03:10:27;;;;;;;3.15;2.25;;;6.10;99.90;;;;;;4964467;28;20047;-65
2021/05/06 03:23:43;;;;;;;2.78;2.58;;;6.20;99.90;;;;;;4925597;28;20493;-64
2021/05/06 03:26:11;;;;;;;8.02;3.80;;;6.20;99.90;;;;;;4966488;28;20093;-65
2021/05/06 03:28:42;;;;;;;2.72;2.53;;;6.10;99.90;;;;;;4963082;28;20054;-65
2021/05/06 03:43:02;;;;;;;2.97;2.30;;;6.10;99.90;;;;;;4962931;28;20134;-64
2021/05/06 04:18:34;;;;;;;2.95;2.72;;;6.00;99.90;;;;;;4964569;28;20050;-64
2021/05/06 04:26:47;;;;;;;4.35;2.88;;;6.00;99.90;;;;;;4962249;28;20050;-64
2021/05/06 04:37:25;;;;;;;5.63;4.80;;;6.10;99.90;;;;;;4958023;28;20191;-64
2021/05/06 04:57:22;;;;;;;6.22;4.00;;;6.20;99.90;;;;;;4961557;28;20047;-64
2021/05/06 04:59:29;;;;;;;4.38;3.97;;;6.20;99.90;;;;;;4945802;28;20458;-64
2021/05/06 05:04:57;;;;;;;11.98;4.43;;;6.30;99.90;;;;;;4901908;29;20512;-65
2021/05/06 05:07:35;;;;;;;12.27;3.80;;;6.30;99.90;;;;;;4947509;28;20051;-64
2021/05/06 05:21:12;;;;;;;62.00;7.03;;;6.40;99.90;;;;;;4964731;28;20058;-65
2021/05/06 05:23:42;;;;;;;11.55;4.03;;;6.40;99.90;;;;;;4955788;28;20394;-64
2021/05/06 05:26:11;;;;;;;35.80;6.07;;;6.40;99.90;;;;;;4941662;28;20046;-64
2021/05/06 05:28:38;;;;;;;34.08;6.05;;;6.40;99.90;;;;;;4959937;28;20050;-65
2021/05/06 05:31:05;;;;;;;35.03;5.57;;;6.50;99.90;;;;;;4959635;28;20110;-64
2021/05/06 05:33:41;;;;;;;30.67;5.15;;;6.50;99.90;;;;;;4958443;28;20034;-63
2021/05/06 05:36:11;;;;;;;10.07;3.45;;;6.40;99.90;;;;;;4960134;28;20520;-64
2021/05/06 05:43:53;;;;;;;8.35;4.82;;;6.40;99.90;;;;;;4956276;28;20046;-65
2021/05/06 05:56:52;;;;;;;46.33;5.95;;;6.40;99.90;;;;;;4959943;28;20105;-65
2021/05/06 05:59:19;;;;;;;9.70;3.55;;;6.30;99.90;;;;;;4958816;28;20050;-64
2021/05/06 06:01:48;;;;;;;37.92;6.82;;;6.30;99.90;;;;;;4959487;28;20047;-64
2021/05/06 06:04:15;;;;;;;35.88;5.55;;;6.30;99.90;;;;;;4959509;28;20053;-64
2021/05/06 06:06:42;;;;;;;46.42;5.97;;;6.30;99.90;;;;;;4962543;28;20038;-64
2021/05/06 06:09:26;;;;;;;41.13;5.03;;;6.20;99.90;;;;;;861847;28;10004264;-63
2021/05/06 06:11:52;;;;;;;35.28;5.10;;;6.10;99.90;;;;;;4966419;28;20246;-64
2021/05/06 06:14:25;;;;;;;28.67;5.28;;;6.10;99.90;;;;;;4964024;28;20113;-63
2021/05/06 06:16:52;;;;;;;23.95;4.13;;;6.00;99.90;;;;;;4965234;28;20055;-65
2021/05/06 06:19:23;;;;;;;22.80;5.90;;;6.10;99.90;;;;;;4965049;28;20373;-64
2021/05/06 06:22:00;;;;;;;11.55;3.35;;;6.10;99.90;;;;;;4963624;28;20046;-65
2021/05/06 06:24:26;;;;;;;18.73;3.72;;;6.20;99.90;;;;;;4965606;28;20042;-64
2021/05/06 06:26:53;;;;;;;26.75;4.13;;;6.20;99.90;;;;;;4967013;28;20042;-64
2021/05/06 06:29:22;;;;;;;16.73;3.05;;;6.20;99.90;;;;;;4964142;28;20046;-63
2021/05/06 06:31:50;;;;;;;12.48;3.20;;;6.20;99.90;;;;;;4967360;28;20045;-64
2021/05/06 06:34:16;;;;;;;5.90;2.97;;;6.20;99.90;;;;;;4964479;28;20062;-64
2021/05/06 06:36:46;;;;;;;14.75;3.25;;;6.30;99.90;;;;;;4964313;28;20046;-63
2021/05/06 06:39:16;;;;;;;9.60;3.22;;;6.30;99.90;;;;;;4965371;28;20071;-64
2021/05/06 06:41:47;;;;;;;8.80;2.83;;;6.30;99.90;;;;;;4965064;28;20039;-64
2021/05/06 06:44:14;;;;;;;13.10;2.78;;;6.30;99.90;;;;;;4964362;28;20130;-65
2021/05/06 06:46:42;;;;;;;6.22;2.40;;;6.40;99.90;;;;;;4966221;28;20131;-63
2021/05/06 06:49:10;;;;;;;10.43;3.45;;;6.30;99.90;;;;;;4964344;28;20057;-64
2021/05/06 06:51:37;;;;;;;15.40;3.33;;;6.30;99.90;;;;;;4966039;28;20042;-64
2021/05/06 06:54:07;;;;;;;13.05;3.28;;;6.40;99.90;;;;;;4964833;28;20520;-63
2021/05/06 06:56:33;;;;;;;10.15;3.47;;;6.40;99.90;;;;;;4966237;28;20036;-64
2021/05/06 06:58:59;;;;;;;11.30;3.15;;;6.50;99.90;;;;;;4964420;28;20153;-65
2021/05/06 07:01:26;;;;;;;9.55;3.10;;;6.60;99.90;;;;;;4963803;28;20047;-65
2021/05/06 07:03:52;;;;;;;8.70;3.10;;;6.60;99.90;;;;;;4963526;28;20161;-64
2021/05/06 07:06:19;;;;;;;9.82;2.85;;;6.50;99.90;;;;;;4948303;28;20460;-65
2021/05/06 07:08:47;;;;;;;8.60;3.08;;;6.50;99.90;;;;;;4963091;28;20047;-64
2021/05/06 07:11:13;;;;;;;7.20;2.72;;;6.50;99.90;;;;;;4971025;28;20066;-64
2021/05/06 07:13:40;;;;;;;9.57;3.83;;;6.50;99.90;;;;;;4962297;28;20560;-65
2021/05/06 07:16:08;;;;;;;10.35;4.50;;;6.50;99.90;;;;;;4969774;28;20084;-63
2021/05/06 07:18:35;;;;;;;13.55;4.03;;;6.70;99.90;;;;;;4962531;28;20053;-64
2021/05/06 07:21:04;;;;;;;7.38;3.38;;;6.70;99.90;;;;;;4967980;28;20039;-64
2021/05/06 07:23:31;;;;;;;7.45;3.95;;;6.80;99.90;;;;;;4963711;28;20047;-64
2021/05/06 07:26:02;;;;;;;6.57;3.42;;;6.80;99.90;;;;;;4967880;28;20179;-65
2021/05/06 07:28:36;;;;;;;7.93;3.97;;;6.80;99.90;;;;;;4945049;28;20121;-64
2021/05/06 07:31:07;;;;;;;5.18;3.33;;;7.00;99.90;;;;;;4965313;28;20067;-64
2021/05/06 07:33:37;;;;;;;8.45;3.78;;;7.00;99.90;;;;;;4960888;28;20059;-65
2021/05/06 07:36:09;;;;;;;4.47;2.90;;;7.00;99.90;;;;;;4965268;28;20130;-64
2021/05/06 07:38:39;;;;;;;9.20;2.92;;;6.70;99.90;;;;;;4963746;28;20125;-63
2021/05/06 07:41:11;;;;;;;6.50;5.43;;;6.80;99.90;;;;;;4968366;28;20057;-64
2021/05/06 07:43:44;;;;;;;11.23;3.88;;;6.80;99.90;;;;;;4961651;28;20295;-64
2021/05/06 07:46:15;;;;;;;10.43;3.28;;;6.90;99.90;;;;;;4966205;28;20708;-64
2021/05/06 07:48:48;;;;;;;9.70;2.42;;;6.90;99.90;;;;;;4978678;28;20144;-64
2021/05/06 07:51:18;;;;;;;;;;;7.00;99.90;;;;;;4967000;28;20070;-64
2021/05/06 07:53:49;;;;;;;8.60;2.20;;;6.90;99.90;;;;;;4963139;28;19929;-65
2021/05/06 07:56:20;;;;;;;9.48;2.10;;;6.80;99.90;;;;;;4964973;28;20101;-64
2021/05/06 07:58:47;;;;;;;11.68;2.92;;;6.60;99.90;;;;;;4962822;28;20465;-64
2021/05/06 08:01:15;;;;;;;7.40;3.28;;;6.60;99.90;;;;;;4964507;28;20055;-64
2021/05/06 08:03:41;;;;;;;14.57;3.45;;;6.70;99.90;;;;;;4961706;28;20146;-64
2021/05/06 08:06:08;;;;;;;15.80;2.55;;;6.60;99.90;;;;;;4968742;28;20046;-64
2021/05/06 08:08:34;;;;;;;13.55;3.30;;;6.50;99.90;;;;;;4963482;28;20050;-64
2021/05/06 08:11:02;;;;;;;9.95;3.17;;;6.50;99.90;;;;;;4965123;28;20059;-63
2021/05/06 08:13:29;;;;;;;5.63;2.80;;;6.40;99.90;;;;;;4962467;28;20097;-65
2021/05/06 08:15:57;;;;;;;8.90;2.85;;;6.30;99.90;;;;;;4949017;28;20179;-65
2021/05/06 08:18:24;;;;;;;13.35;3.63;;;6.40;99.90;;;;;;4958568;28;20047;-64
2021/05/06 08:20:51;;;;;;;7.43;3.58;;;6.40;99.90;;;;;;4963598;28;20053;-65
2021/05/06 08:23:20;;;;;;;7.10;2.70;;;6.50;99.90;;;;;;4943664;28;20039;-65
2021/05/06 08:25:47;;;;;;;12.57;2.65;;;6.50;99.90;;;;;;4966443;28;20118;-65
2021/05/06 08:28:14;;;;;;;1.70;1.60;;;6.60;99.90;;;;;;4944737;28;20126;-64
2021/05/06 08:30:41;;;;;;;3.05;1.90;;;6.70;99.90;;;;;;4962746;28;20171;-64
2021/05/06 08:33:08;;;;;;;5.68;1.70;;;6.70;99.90;;;;;;4962812;28;20043;-65
2021/05/06 08:35:34;;;;;;;3.75;1.45;;;6.70;99.90;;;;;;4960975;28;20109;-64
2021/05/06 08:38:01;;;;;;;1.50;1.40;;;6.60;99.90;;;;;;4963522;28;20134;-65
2021/05/06 08:40:29;;;;;;;1.83;1.50;;;6.80;99.90;;;;;;4964366;28;20380;-65
2021/05/06 08:42:56;;;;;;;2.75;1.55;;;6.80;99.90;;;;;;4956641;28;20055;-67
2021/05/06 08:45:28;;;;;;;3.05;1.67;;;6.80;99.90;;;;;;4959274;28;20042;-65
2021/05/06 08:47:56;;;;;;;4.15;2.67;;;6.80;99.90;;;;;;4960984;28;20138;-65
2021/05/06 08:50:23;;;;;;;3.83;2.70;;;6.90;99.90;;;;;;4961302;28;20125;-67
2021/05/06 08:52:49;;;;;;;3.22;1.85;;;6.90;99.90;;;;;;4957039;28;20110;-65
2021/05/06 08:55:17;;;;;;;2.88;2.20;;;6.80;99.90;;;;;;4961478;28;20654;-67
2021/05/06 08:57:44;;;;;;;1.80;1.70;;;6.90;99.90;;;;;;4962844;28;20046;-66
2021/05/06 09:00:11;;;;;;;4.25;2.65;;;7.00;99.90;;;;;;4963047;28;20046;-66
2021/05/06 09:02:48;;;;;;;2.38;1.90;;;7.10;99.90;;;;;;4966094;28;20567;-67
2021/05/06 09:05:15;;;;;;;3.90;2.30;;;7.30;99.90;;;;;;4960927;28;20161;-65
2021/05/06 09:07:43;;;;;;;2.88;2.55;;;7.50;99.90;;;;;;4963193;28;20374;-65
2021/05/06 09:10:11;;;;;;;5.05;2.08;;;7.80;99.90;;;;;;4942743;28;20057;-66
2021/05/06 09:12:39;;;;;;;2.28;1.73;;;7.90;99.90;;;;;;4962803;28;20051;-65
2021/05/06 09:15:16;;;;;;;7.32;3.38;;;7.90;99.90;;;;;;4963734;28;20533;-65
2021/05/06 09:17:42;;;;;;;5.45;2.50;;;8.00;99.90;;;;;;4961000;28;20057;-65
2021/05/06 09:20:12;;;;;;;2.20;1.95;;;7.90;99.90;;;;;;4965959;28;20058;-65
2021/05/06 09:22:44;;;;;;;6.17;3.27;;;7.90;99.90;;;;;;4962674;28;20051;-66
2021/05/06 09:25:32;;;;;;;2.90;2.42;;;7.80;99.90;;;;;;4960670;28;20500;-67
2021/05/06 09:28:23;;;;;;;2.00;1.80;;;7.80;99.90;;;;;;4960642;28;20050;-65
2021/05/06 09:30:51;;;;;;;;;;;8.00;99.90;;;;;;4961276;28;20050;-66
2021/05/06 09:33:26;;;;;;;4.35;2.53;;;8.00;99.90;;;;;;4962453;28;20292;-67
2021/05/06 09:35:53;;;;;;;5.15;3.38;;;8.20;99.90;;;;;;4960011;28;20066;-65
2021/05/06 09:38:25;;;;;;;4.80;2.80;;;8.10;99.90;;;;;;4963640;28;20050;-65
2021/05/06 09:40:52;;;;;;;8.02;2.72;;;8.00;99.90;;;;;;4962324;28;20072;-65
2021/05/06 09:43:32;;;;;;;5.25;2.83;;;8.10;99.90;;;;;;4961616;28;20066;-66
2021/05/06 09:46:24;;;;;;;6.63;3.92;;;8.00;99.90;;;;;;4960051;28;20070;-65
2021/05/06 09:49:02;;;;;;;6.10;4.95;;;7.80;99.90;;;;;;4961727;28;20051;-67
2021/05/06 09:51:38;;;;;;;14.25;6.97;;;7.90;99.90;;;;;;4959926;28;20065;-65
2021/05/06 09:54:10;;;;;;;12.18;7.28;;;7.80;99.90;;;;;;4964870;28;20504;-67
2021/05/06 09:56:40;;;;;;;16.10;7.13;;;7.90;99.90;;;;;;4962226;28;20393;-65
2021/05/06 09:59:07;;;;;;;12.60;5.97;;;7.80;99.90;;;;;;4961085;28;20047;-65
2021/05/06 10:01:42;;;;;;;10.90;5.38;;;7.70;99.90;;;;;;4961082;28;20039;-67
2021/05/06 10:04:27;;;;;;;8.30;5.40;;;7.80;99.90;;;;;;4960584;28;20109;-66
2021/05/06 10:07:17;;;;;;;10.50;7.85;;;7.80;99.90;;;;;;4962908;28;20058;-66
2021/05/06 10:09:59;;;;;;;8.98;6.78;;;7.90;99.90;;;;;;4959147;28;20117;-65
2021/05/06 10:12:35;;;;;;;12.35;7.60;;;7.80;99.90;;;;;;4962609;28;20065;-66
2021/05/06 10:15:05;;;;;;;14.52;8.70;;;7.70;99.90;;;;;;4961947;28;20066;-66
2021/05/06 10:17:32;;;;;;;12.82;7.90;;;7.60;99.90;;;;;;4960409;28;20117;-65
2021/05/06 10:19:59;;;;;;;9.00;4.95;;;7.60;99.90;;;;;;4962407;28;20049;-65
2021/05/06 10:22:28;;;;;;;6.07;4.97;;;7.60;99.90;;;;;;4960016;28;20496;-65
2021/05/06 10:24:57;;;;;;;6.10;4.27;;;7.60;99.90;;;;;;4962481;28;20062;-65
2021/05/06 10:27:25;;;;;;;10.20;5.20;;;7.50;99.90;;;;;;4959387;28;20113;-67
2021/05/06 10:29:57;;;;;;;6.45;3.80;;;7.50;99.90;;;;;;4958636;28;20225;-65
2021/05/06 10:32:28;;;;;;;8.75;5.05;;;7.40;99.90;;;;;;4955519;28;20070;-66
2021/05/06 10:34:57;;;;;;;7.35;4.45;;;7.50;99.90;;;;;;4961343;28;20070;-64
2021/05/06 10:37:31;;;;;;;6.03;3.28;;;7.50;99.90;;;;;;4939421;28;20444;-65
2021/05/06 10:39:58;;;;;;;6.82;3.20;;;7.50;99.90;;;;;;4960142;28;20039;-64
2021/05/06 10:42:27;;;;;;;7.43;4.47;;;7.50;99.90;;;;;;4962320;28;20069;-67
2021/05/06 10:44:55;;;;;;;7.83;4.03;;;7.60;99.90;;;;;;4959107;28;20537;-67
2021/05/06 10:47:47;;;;;;;8.43;4.70;;;7.60;99.90;;;;;;4959011;28;20289;-66
2021/05/06 10:50:16;;;;;;;9.98;4.72;;;7.60;99.90;;;;;;4959845;28;20061;-68
2021/05/06 10:52:45;;;;;;;9.45;4.35;;;7.60;99.90;;;;;;4961512;28;20042;-66
2021/05/06 10:55:14;;;;;;;13.07;4.50;;;7.70;99.90;;;;;;4963810;28;20062;-65
2021/05/06 10:57:41;;;;;;;8.05;4.05;;;7.70;99.90;;;;;;4961111;28;20154;-67
2021/05/06 11:00:26;;;;;;;7.03;4.20;;;7.80;99.90;;;;;;4962762;28;20070;-64
2021/05/06 11:02:58;;;;;;;11.93;4.35;;;7.70;99.90;;;;;;4963222;28;20043;-66
2021/05/06 11:05:27;;;;;;;14.98;6.10;;;7.70;99.90;;;;;;4962558;28;20053;-67
2021/05/06 11:08:03;;;;;;;23.10;7.20;;;7.70;99.90;;;;;;4963473;28;20042;-65
2021/05/06 11:10:50;;;;;;;13.05;7.13;;;7.50;99.90;;;;;;4962766;28;20042;-65
2021/05/06 11:13:18;;;;;;;15.05;8.95;;;7.50;99.90;;;;;;4961841;28;20101;-65
2021/05/06 11:15:45;;;;;;;20.08;7.10;;;7.40;99.90;;;;;;4960310;28;20046;-65
2021/05/06 11:18:32;;;;;;;11.80;5.40;;;7.50;99.90;;;;;;4965531;28;20066;-65
2021/05/06 11:20:58;;;;;;;15.45;6.15;;;7.50;99.90;;;;;;4952867;28;20457;-65
2021/05/06 11:23:29;;;;;;;16.40;5.45;;;7.50;99.90;;;;;;4959054;28;20050;-65
2021/05/06 11:26:06;;;;;;;11.27;5.10;;;7.60;99.90;;;;;;4968909;28;20050;-65
2021/05/06 11:28:32;;;;;;;14.02;4.57;;;7.90;99.90;;;;;;4966301;28;20042;-65
2021/05/06 11:30:59;;;;;;;14.60;5.05;;;8.10;99.90;;;;;;4958596;28;20046;-65
2021/05/06 11:33:28;;;;;;;12.95;4.65;;;8.20;99.90;;;;;;4964814;28;20088;-64
2021/05/06 11:36:09;;;;;;;11.02;5.70;;;8.10;99.90;;;;;;4965505;28;20113;-65
2021/05/06 11:38:54;;;;;;;19.80;8.68;;;8.10;99.90;;;;;;4970637;28;20104;-66
2021/05/06 11:41:28;;;;;;;12.00;5.47;;;8.40;99.90;;;;;;4969948;28;20047;-66
2021/05/06 11:43:57;;;;;;;16.30;5.55;;;8.40;99.90;;;;;;4970512;28;20046;-65
2021/05/06 11:46:41;;;;;;;23.52;6.20;;;8.40;99.90;;;;;;4971112;28;20059;-65
2021/05/06 11:49:13;;;;;;;11.32;5.53;;;8.40;99.90;;;;;;4971364;28;20047;-67
2021/05/06 11:51:47;;;;;;;13.52;6.72;;;8.40;99.90;;;;;;4969935;28;20047;-65
2021/05/06 11:54:19;;;;;;;14.88;5.53;;;8.30;99.90;;;;;;4971705;28;20039;-65
2021/05/06 11:57:02;;;;;;;10.45;4.95;;;8.30;99.90;;;;;;4961647;28;20038;-65
2021/05/06 11:59:30;;;;;;;20.15;6.75;;;8.20;99.90;;;;;;4954743;28;20480;-65
2021/05/06 12:02:05;;;;;;;10.48;6.13;;;8.10;99.90;;;;;;4966570;28;20394;-65
2021/05/06 12:04:34;;;;;;;23.48;8.10;;;7.80;99.90;;;;;;4968301;28;20047;-67
2021/05/06 12:07:16;;;;;;;14.18;6.93;;;7.70;99.90;;;;;;4968535;28;20085;-66
2021/05/06 12:09:43;;;;;;;16.88;7.28;;;7.90;99.90;;;;;;4968343;28;20046;-65
2021/05/06 12:12:10;;;;;;;15.90;6.43;;;7.90;99.90;;;;;;4968954;28;20074;-67
2021/05/06 12:14:39;;;;;;;10.13;6.25;;;7.80;99.90;;;;;;4972615;28;20701;-65
2021/05/06 12:17:07;;;;;;;11.93;5.63;;;7.70;99.90;;;;;;4970383;28;20054;-65
2021/05/06 12:19:43;;;;;;;13.57;5.82;;;7.60;99.90;;;;;;4969904;28;20054;-67
2021/05/06 12:22:10;;;;;;;11.18;6.22;;;7.50;99.90;;;;;;4962735;28;20050;-65
2021/05/06 12:24:40;;;;;;;20.25;7.38;;;7.50;99.90;;;;;;4968071;28;20106;-66
2021/05/06 12:27:23;;;;;;;11.45;5.88;;;7.50;99.90;;;;;;4967101;28;20043;-66
2021/05/06 12:30:00;;;;;;;18.95;6.07;;;7.60;99.90;;;;;;4966865;28;20055;-66
2021/05/06 12:32:33;;;;;;;14.05;6.03;;;7.60;99.90;;;;;;4965406;28;20788;-64
2021/05/06 12:35:01;;;;;;;15.45;6.70;;;7.60;99.90;;;;;;4967008;28;20126;-65
2021/05/06 12:37:32;;;;;;;15.65;6.72;;;7.60;99.90;;;;;;4966933;28;20070;-65
2021/05/06 12:40:00;;;;;;;17.73;6.38;;;7.60;99.90;;;;;;4966027;28;20059;-65
2021/05/06 12:42:34;;;;;;;13.77;5.00;;;7.60;99.90;;;;;;4966594;28;20422;-65
2021/05/06 12:45:22;;;;;;;7.22;4.18;;;7.50;99.90;;;;;;4968703;28;20121;-65
2021/05/06 12:47:49;;;;;;;6.15;3.67;;;7.30;99.90;;;;;;4964643;28;20043;-65
2021/05/06 12:50:21;;;;;;;9.65;3.90;;;7.30;99.90;;;;;;4968667;28;20553;-65
2021/05/06 12:52:49;;;;;;;8.85;4.30;;;7.30;99.90;;;;;;4966201;28;20057;-65
2021/05/06 12:55:19;;;;;;;9.15;4.55;;;7.30;99.90;;;;;;4969674;28;20150;-64
2021/05/06 12:58:03;;;;;;;7.70;4.50;;;7.20;99.90;;;;;;4964735;28;20390;-65
2021/05/06 13:00:34;;;;;;;6.18;4.47;;;7.20;99.90;;;;;;4965892;28;20054;-65
2021/05/06 13:03:05;;;;;;;8.32;4.20;;;7.20;99.90;;;;;;4966645;28;20497;-65
2021/05/06 13:05:37;;;;;;;8.00;4.88;;;7.20;99.90;;;;;;4967246;28;20041;-65
2021/05/06 13:08:05;;;;;;;11.95;4.40;;;7.20;99.90;;;;;;4965779;28;20048;-64
2021/05/06 13:10:40;;;;;;;7.93;4.68;;;7.20;99.90;;;;;;4967279;28;20173;-65
2021/05/06 13:13:09;;;;;;;9.15;4.60;;;7.10;99.90;;;;;;4968716;28;20042;-65
2021/05/06 13:15:53;;;;;;;13.30;4.40;;;7.20;99.90;;;;;;4950193;28;20556;-65
2021/05/06 13:18:20;;;;;;;5.70;4.25;;;7.30;99.90;;;;;;4967893;28;20054;-67
2021/05/06 13:20:48;;;;;;;6.53;4.75;;;7.10;99.90;;;;;;4966247;28;20059;-65
2021/05/06 13:23:22;;;;;;;7.68;3.75;;;7.10;99.90;;;;;;4968141;28;20050;-65
2021/05/06 13:25:54;;;;;;;10.88;5.10;;;7.00;99.90;;;;;;4966383;28;20047;-66
2021/05/06 13:28:32;;;;;;;8.48;4.30;;;6.90;99.90;;;;;;4967070;28;20046;-65
2021/05/06 13:31:20;;;;;;;6.13;4.63;;;6.90;99.90;;;;;;4962654;28;20042;-65
2021/05/06 13:33:49;;;;;;;15.27;4.57;;;6.90;99.90;;;;;;4964089;28;20058;-65
2021/05/06 13:36:23;;;;;;;10.70;5.05;;;6.90;99.90;;;;;;4963996;28;20054;-67
2021/05/06 13:38:52;;;;;;;7.72;4.30;;;7.00;99.90;;;;;;4964470;28;20058;-68
2021/05/06 13:41:22;;;;;;;5.88;5.00;;;6.90;99.90;;;;;;4961143;28;20054;-65
2021/05/06 13:48:05;;;;;;;12.82;6.22;;;6.70;99.90;;;;;;4944918;28;20114;-67
2021/05/06 13:50:31;;;;;;;10.85;5.15;;;6.80;99.90;;;;;;4943636;28;20051;-65
2021/05/06 13:52:58;;;;;;;10.27;5.68;;;6.80;99.90;;;;;;4946957;28;20079;-65
2021/05/06 13:55:24;;;;;;;12.77;4.63;;;6.80;99.90;;;;;;4943320;28;20059;-65
2021/05/06 13:57:51;;;;;;;7.03;4.63;;;6.70;99.90;;;;;;4945752;28;20570;-65
2021/05/06 14:00:18;;;;;;;11.63;5.00;;;6.70;99.90;;;;;;4943152;28;20055;-67
2021/05/06 14:02:44;;;;;;;7.03;5.32;;;6.70;99.90;;;;;;4947866;28;20050;-64
2021/05/06 14:05:11;;;;;;;8.45;4.85;;;6.70;99.90;;;;;;4945612;28;20046;-65
2021/05/06 14:07:38;;;;;;;13.45;4.65;;;6.60;99.90;;;;;;4944643;28;20576;-65
2021/05/06 14:10:05;;;;;;;7.85;4.10;;;6.70;99.90;;;;;;4943971;28;20074;-65
2021/05/06 14:12:31;;;;;;;7.90;3.50;;;6.70;99.90;;;;;;4945221;28;20043;-65
2021/05/06 14:14:58;;;;;;;6.93;4.47;;;6.70;99.90;;;;;;4945015;28;20050;-66
2021/05/06 14:17:24;;;;;;;5.35;3.85;;;6.70;99.90;;;;;;4958311;28;20110;-66
2021/05/06 14:19:50;;;;;;;9.60;3.78;;;6.60;99.90;;;;;;4945682;28;20534;-65
2021/05/06 14:22:17;;;;;;;6.63;4.32;;;6.60;99.90;;;;;;4948383;28;20047;-67
2021/05/06 14:24:44;;;;;;;5.22;3.45;;;6.60;99.90;;;;;;4947595;28;20049;-65
2021/05/06 14:27:10;;;;;;;11.65;5.50;;;6.50;99.90;;;;;;4946514;28;20043;-67
2021/05/06 14:29:37;;;;;;;5.30;3.10;;;6.50;99.90;;;;;;4946577;28;20047;-66
2021/05/06 14:32:04;;;;;;;7.07;3.97;;;6.40;99.90;;;;;;4951386;28;20493;-66
2021/05/06 14:34:30;;;;;;;5.53;3.75;;;6.30;99.90;;;;;;4949405;28;20042;-65
2021/05/06 14:36:57;;;;;;;9.43;3.90;;;6.30;99.90;;;;;;4955726;28;20055;-65
2021/05/06 14:39:24;;;;;;;7.50;3.88;;;6.30;99.90;;;;;;4947856;28;20536;-66
2021/05/06 14:41:50;;;;;;;10.60;4.13;;;6.30;99.90;;;;;;4949082;28;20040;-68
2021/05/06 14:44:17;;;;;;;9.95;5.38;;;6.30;99.90;;;;;;4947238;28;20055;-67
2021/05/06 14:46:43;;;;;;;9.65;5.07;;;6.30;99.90;;;;;;4951103;28;20058;-66
2021/05/06 14:49:10;;;;;;;6.50;4.30;;;6.20;99.90;;;;;;4947991;28;20047;-65
2021/05/06 14:51:36;;;;;;;8.80;3.38;;;6.20;99.90;;;;;;4949847;28;20465;-66
2021/05/06 14:54:03;;;;;;;6.13;3.75;;;6.20;99.90;;;;;;4947053;28;20051;-66
2021/05/06 14:56:30;;;;;;;4.15;3.75;;;6.20;99.90;;;;;;4947143;28;20047;-65
2021/05/06 14:58:56;;;;;;;7.07;2.72;;;6.10;99.90;;;;;;4946722;28;20051;-66
2021/05/06 15:01:23;;;;;;;4.53;3.20;;;6.10;99.90;;;;;;4950721;28;20047;-65
2021/05/06 15:03:49;;;;;;;5.82;2.58;;;6.10;99.90;;;;;;4946855;28;20068;-66
2021/05/06 15:06:16;;;;;;;2.70;2.40;;;6.20;99.90;;;;;;4929389;28;20073;-66
2021/05/06 15:08:43;;;;;;;3.65;2.33;;;6.20;99.90;;;;;;4948408;28;20100;-66
2021/05/06 15:11:10;;;;;;;4.95;2.30;;;6.10;99.90;;;;;;4947951;28;20061;-66
2021/05/06 15:13:37;;;;;;;6.10;2.97;;;6.00;99.90;;;;;;4948991;28;20062;-66
2021/05/06 15:16:04;;;;;;;3.15;2.38;;;5.90;99.90;;;;;;4948052;28;20043;-65
2021/05/06 15:18:30;;;;;;;4.50;3.15;;;5.80;99.90;;;;;;4954479;28;20207;-65
2021/05/06 15:20:57;;;;;;;6.25;2.35;;;5.80;99.90;;;;;;4949693;28;20118;-66
2021/05/06 15:23:23;;;;;;;7.95;3.65;;;5.80;99.90;;;;;;4948721;28;20465;-65
2021/05/06 15:25:50;;;;;;;6.68;3.40;;;5.70;99.90;;;;;;4948244;28;20051;-68
2021/05/06 15:28:16;;;;;;;4.85;2.80;;;5.70;99.90;;;;;;4946058;28;20224;-65
2021/05/06 15:30:44;;;;;;;7.15;3.08;;;5.70;99.90;;;;;;4947665;28;20039;-66
2021/05/06 15:33:10;;;;;;;6.93;2.40;;;5.70;99.90;;;;;;4948121;28;20502;-65
2021/05/06 15:35:37;;;;;;;5.38;3.10;;;5.60;99.90;;;;;;4950016;28;20501;-65
2021/05/06 15:38:04;;;;;;;8.57;3.20;;;5.60;99.90;;;;;;4947548;28;20035;-65
2021/05/06 15:40:31;;;;;;;7.07;3.42;;;5.60;99.90;;;;;;4943507;28;20051;-67
2021/05/06 15:43:02;;;;;;;3.30;2.30;;;5.50;99.90;;;;;;4947477;28;20106;-66
2021/05/06 15:45:29;;;;;;;3.22;2.60;;;5.50;99.90;;;;;;4950976;28;20113;-65
2021/05/06 15:47:55;;;;;;;8.20;3.83;;;5.50;99.90;;;;;;4926987;28;20469;-68
2021/05/06 15:50:22;;;;;;;10.25;3.00;;;5.50;99.90;;;;;;4944268;28;20061;-66
2021/05/06 15:52:49;;;;;;;4.78;2.08;;;5.50;99.90;;;;;;4949438;28;20043;-65
2021/05/06 15:55:16;;;;;;;6.63;2.22;;;5.50;99.90;;;;;;4946499;28;20529;-65
2021/05/06 15:57:44;;;;;;;5.28;2.33;;;5.40;99.90;;;;;;4942268;28;20065;-66
2021/05/06 16:00:14;;;;;;;6.25;2.90;;;5.40;99.90;;;;;;4940556;28;20055;-65
2021/05/06 16:02:43;;;;;;;3.17;2.08;;;5.40;99.90;;;;;;4942341;28;20534;-66
2021/05/06 16:05:12;;;;;;;3.95;1.75;;;5.30;99.90;;;;;;4959813;28;20170;-67
2021/05/06 16:07:38;;;;;;;3.00;2.72;;;5.30;99.90;;;;;;4945159;28;20058;-67
2021/05/06 16:10:05;;;;;;;5.13;2.65;;;5.20;99.90;;;;;;4944047;28;20158;-66
2021/05/06 16:12:31;;;;;;;4.80;1.50;;;5.30;99.90;;;;;;4946059;28;20044;-65
2021/05/06 16:14:59;;;;;;;2.33;1.40;;;5.30;99.90;;;;;;4933586;28;20099;-65
2021/05/06 16:17:26;;;;;;;2.08;1.77;;;5.30;99.90;;;;;;4946618;28;20054;-65
2021/05/06 16:19:54;;;;;;;12.07;3.15;;;5.30;99.90;;;;;;4944700;28;20425;-66
2021/05/06 16:22:21;;;;;;;3.83;3.20;;;5.30;99.90;;;;;;4948528;28;20118;-65
2021/05/06 16:24:47;;;;;;;3.97;2.97;;;5.20;99.90;;;;;;4946959;28;20098;-67
2021/05/06 16:27:13;;;;;;;10.23;3.42;;;5.20;99.90;;;;;;4945339;28;20059;-65
2021/05/06 16:29:40;;;;;;;6.20;5.05;;;5.20;99.90;;;;;;4949103;28;20043;-65
2021/05/06 16:32:07;;;;;;;3.80;2.08;;;5.20;99.90;;;;;;4947523;28;20066;-66
2021/05/06 16:34:34;;;;;;;6.97;2.15;;;5.20;99.90;;;;;;4949573;28;20102;-66
2021/05/06 16:37:10;;;;;;;3.58;1.90;;;5.20;99.90;;;;;;4948459;28;20051;-65